VG49 weather

Tappahannock Hospital Heliport
Tappahannock, Virginia, United States

Public forecast

Using degrees Fahrenheit for public forecast. Weather courtesy of forecast.io.

Closest aviation weather report (METAR) to Tappahannock Hospital Heliport

Closest report is Tappahannock-Essex County Airport, 2.6 nm (4.9 km) SSW. Retrieved 2019/10/21 07:35 UTC (0 seconds ago):

KXSA 210735Z AUTO 33007KT 5SM BR OVC005 13/13 A2999 RMK AO2 T01270127

Closest aviation forecast (TAF) to Tappahannock Hospital Heliport

Closest forecast is Richmond International Airport, 31.7 nm (58.8 km) SW. Retrieved 2019/10/21 06:42 UTC (21 minutes ago):

TAF KRIC 210540Z 2106/2206 34007KT P6SM SCT007 OVC012 TEMPO 2106/2109 BKN007 FM211600 36005KT P6SM BKN025 FM212100 VRB03KT P6SM BKN040 FM220500 VRB03KT P6SM BKN020